createdAt,value
2023-02-04T00:00:37.389Z,3.03
2023-02-04T00:03:39.504Z,3.05
2023-02-04T00:06:41.662Z,3.33
2023-02-04T00:09:44.000Z,3.13
2023-02-04T00:12:46.254Z,2.97
2023-02-04T00:15:48.284Z,3.88
2023-02-04T00:18:50.748Z,3.78
2023-02-04T00:21:53.912Z,6.38
2023-02-04T00:24:56.025Z,3.50
2023-02-04T00:27:57.835Z,3.20
2023-02-04T00:30:59.904Z,3.47
2023-02-04T00:34:01.576Z,2.80
2023-02-04T00:37:03.849Z,3.10
2023-02-04T00:40:06.105Z,3.20
2023-02-04T00:43:07.732Z,3.25
2023-02-04T00:46:09.599Z,2.97
2023-02-04T00:49:12.366Z,4.18
2023-02-04T00:52:13.948Z,2.85
2023-02-04T00:55:18.317Z,3.75
2023-02-04T00:58:20.040Z,3.50
2023-02-04T01:01:21.844Z,2.88
2023-02-04T01:04:23.577Z,2.90
2023-02-04T01:07:26.366Z,3.20
2023-02-04T01:10:28.871Z,3.42
2023-02-04T01:13:32.167Z,1.88
2023-02-04T01:16:34.250Z,2.38
2023-02-04T01:19:36.226Z,2.88
2023-02-04T01:22:38.067Z,2.22
2023-02-04T01:25:39.923Z,2.05
2023-02-04T01:28:41.657Z,2.03
2023-02-04T01:31:43.291Z,1.98
2023-02-04T01:34:45.118Z,2.60
2023-02-04T01:37:46.878Z,2.08
2023-02-04T01:40:49.629Z,2.20
2023-02-04T01:43:51.274Z,1.67
2023-02-04T01:46:53.107Z,1.73
2023-02-04T01:49:56.037Z,1.90
2023-02-04T01:52:58.183Z,1.63
2023-02-04T01:55:59.935Z,2.97
2023-02-04T01:59:01.779Z,1.80
2023-02-04T02:02:23.356Z,1.95
2023-02-04T02:05:33.327Z,1.90
2023-02-04T02:08:38.880Z,1.80
2023-02-04T02:11:40.943Z,1.70
2023-02-04T02:14:42.595Z,1.15
2023-02-04T02:17:44.877Z,1.45
2023-02-04T02:20:47.548Z,1.00
2023-02-04T02:23:54.869Z,0.95
2023-02-04T02:26:59.934Z,0.88
2023-02-04T02:30:01.629Z,0.98
2023-02-04T02:33:06.253Z,1.10
2023-02-04T02:36:08.421Z,0.88
2023-02-04T02:39:10.964Z,1.17
2023-02-04T02:42:16.368Z,0.80
2023-02-04T02:45:25.462Z,0.77
2023-02-04T02:48:27.407Z,1.45
2023-02-04T02:51:29.446Z,0.98
2023-02-04T02:54:33.278Z,0.80
2023-02-04T02:57:38.809Z,0.82
2023-02-04T03:00:40.498Z,1.00
2023-02-04T03:03:48.086Z,0.90
2023-02-04T03:06:51.482Z,1.67
2023-02-04T03:09:54.382Z,1.00
2023-02-04T03:12:56.175Z,0.90
2023-02-04T03:15:58.630Z,0.85
2023-02-04T03:19:01.805Z,0.90
2023-02-04T03:22:06.564Z,1.02
2023-02-04T03:25:08.753Z,1.10
2023-02-04T03:28:10.788Z,0.88
2023-02-04T03:31:12.595Z,1.10
2023-02-04T03:34:14.548Z,1.10
2023-02-04T03:37:16.170Z,1.45
2023-02-04T03:40:17.971Z,0.90
2023-02-04T03:43:19.867Z,1.15
2023-02-04T03:46:23.980Z,1.00
2023-02-04T03:49:25.709Z,1.10
2023-02-04T03:52:27.667Z,1.10
2023-02-04T03:55:29.698Z,1.45
2023-02-04T03:58:31.467Z,1.30
2023-02-04T04:01:33.232Z,1.02
2023-02-04T04:04:35.173Z,1.00
2023-02-04T04:07:37.280Z,1.17
2023-02-04T04:10:40.634Z,0.90
2023-02-04T04:13:43.549Z,1.20
2023-02-04T04:16:45.569Z,1.30
2023-02-04T04:19:49.428Z,1.55
2023-02-04T04:22:52.216Z,1.20
2023-02-04T04:25:53.932Z,1.80
2023-02-04T04:28:55.423Z,1.38
2023-02-04T04:31:57.402Z,1.10
2023-02-04T04:34:59.361Z,1.33
2023-02-04T04:38:07.255Z,1.10
2023-02-04T04:41:09.290Z,1.55
2023-02-04T04:44:10.901Z,1.30
2023-02-04T04:47:12.563Z,1.50
2023-02-04T04:50:14.135Z,1.50
2023-02-04T04:53:15.935Z,1.20
2023-02-04T04:56:19.495Z,1.25
2023-02-04T04:59:21.238Z,1.63
2023-02-04T05:02:23.216Z,1.38
2023-02-04T05:05:24.983Z,1.00
2023-02-04T05:08:26.839Z,1.63
2023-02-04T05:11:28.615Z,2.05
2023-02-04T05:14:30.364Z,1.30
2023-02-04T05:17:32.303Z,1.20
2023-02-04T05:20:34.376Z,1.25
2023-02-04T05:23:36.715Z,1.48
2023-02-04T05:26:38.536Z,1.35
2023-02-04T05:29:40.360Z,1.90
2023-02-04T05:32:42.317Z,1.70
2023-02-04T05:35:44.120Z,1.60
2023-02-04T05:38:45.658Z,1.58
2023-02-04T05:41:47.578Z,1.65
2023-02-04T05:44:49.543Z,1.83
2023-02-04T05:47:51.226Z,1.60
2023-02-04T05:50:53.347Z,1.58
2023-02-04T05:53:55.125Z,1.55
2023-02-04T05:56:57.104Z,1.65
2023-02-04T05:59:58.892Z,1.40
2023-02-04T06:03:00.847Z,1.50
2023-02-04T06:06:02.554Z,1.60
2023-02-04T06:09:04.299Z,1.70
2023-02-04T06:12:05.999Z,1.70
2023-02-04T06:15:08.269Z,1.85
2023-02-04T06:18:10.089Z,1.90
2023-02-04T06:21:11.927Z,1.77
2023-02-04T06:24:13.772Z,1.80
2023-02-04T06:27:23.055Z,1.58
2023-02-04T06:30:24.855Z,1.80
2023-02-04T06:33:26.628Z,2.00
2023-02-04T06:36:28.264Z,2.10
2023-02-04T06:39:29.849Z,2.50
2023-02-04T06:42:32.019Z,2.25
2023-02-04T06:45:33.946Z,2.00
2023-02-04T06:48:35.815Z,2.00
2023-02-04T06:51:37.530Z,1.90
2023-02-04T06:54:41.670Z,2.00
2023-02-04T06:57:43.654Z,1.75
2023-02-04T07:00:45.322Z,1.80
2023-02-04T07:03:47.041Z,1.85
2023-02-04T07:06:48.658Z,2.20
2023-02-04T07:09:50.617Z,2.00
2023-02-04T07:12:52.385Z,2.03
2023-02-04T07:15:54.293Z,2.08
2023-02-04T07:18:56.024Z,2.10
2023-02-04T07:21:58.133Z,2.05
2023-02-04T07:24:59.999Z,1.92
2023-02-04T07:28:03.826Z,2.72
2023-02-04T07:31:08.674Z,2.55
2023-02-04T07:34:13.663Z,2.33
2023-02-04T07:37:15.394Z,2.30
2023-02-04T07:40:17.176Z,3.05
2023-02-04T07:43:19.287Z,3.30
2023-02-04T07:46:21.070Z,4.57
2023-02-04T07:49:22.810Z,4.03
2023-02-04T07:52:25.309Z,3.72
2023-02-04T07:55:27.269Z,3.38
2023-02-04T07:58:28.943Z,3.05
2023-02-04T08:01:30.744Z,2.70
2023-02-04T08:04:32.481Z,2.60
2023-02-04T08:07:34.452Z,2.13
2023-02-04T08:10:36.237Z,3.10
2023-02-04T08:13:37.933Z,2.67
2023-02-04T08:16:40.141Z,2.55
2023-02-04T08:19:41.794Z,3.20
2023-02-04T08:22:43.613Z,2.80
2023-02-04T08:25:45.632Z,2.20
2023-02-04T08:28:47.450Z,2.20
2023-02-04T08:31:49.337Z,2.40
2023-02-04T08:34:51.018Z,1.98
2023-02-04T08:37:53.034Z,2.25
2023-02-04T08:40:54.684Z,2.03
2023-02-04T08:43:56.344Z,2.10
2023-02-04T08:46:58.220Z,2.20
2023-02-04T08:50:00.227Z,2.15
2023-02-04T08:53:01.797Z,2.00
2023-02-04T08:56:03.547Z,2.50
2023-02-04T08:59:05.247Z,2.38
2023-02-04T09:02:07.301Z,2.25
2023-02-04T09:05:09.247Z,2.63
2023-02-04T09:08:11.254Z,2.45
2023-02-04T09:11:13.152Z,4.10
2023-02-04T09:14:14.946Z,2.47
2023-02-04T09:17:16.912Z,2.22
2023-02-04T09:20:19.107Z,2.28
2023-02-04T09:23:21.551Z,2.30
2023-02-04T09:26:23.697Z,3.17
2023-02-04T09:29:27.849Z,2.50
2023-02-04T09:32:29.643Z,2.60
2023-02-04T09:35:31.423Z,2.30
2023-02-04T09:38:33.216Z,2.25
2023-02-04T09:41:35.821Z,2.33
2023-02-04T09:44:38.335Z,2.22
2023-02-04T09:47:40.422Z,2.03
2023-02-04T09:50:42.545Z,1.60
2023-02-04T09:53:44.149Z,1.60
2023-02-04T09:56:46.528Z,1.40
2023-02-04T09:59:56.608Z,1.38
2023-02-04T10:03:01.055Z,1.45
2023-02-04T10:06:02.881Z,1.30
2023-02-04T10:09:05.083Z,1.45
2023-02-04T10:12:07.702Z,1.20
2023-02-04T10:15:20.805Z,1.33
2023-02-04T10:18:32.880Z,1.08
2023-02-04T10:21:42.325Z,1.15
2023-02-04T10:24:44.294Z,1.10
2023-02-04T10:28:00.657Z,1.50
2023-02-04T10:31:02.828Z,1.13
2023-02-04T10:34:10.743Z,1.00
2023-02-04T10:37:19.843Z,1.23
2023-02-04T10:40:33.069Z,1.45
2023-02-04T10:43:34.978Z,1.00
2023-02-04T10:46:36.967Z,1.35
2023-02-04T10:49:38.984Z,1.23
2023-02-04T10:52:44.709Z,1.13
2023-02-04T10:55:52.378Z,1.45
2023-02-04T10:58:54.197Z,1.50
2023-02-04T11:01:57.967Z,1.40
2023-02-04T11:05:00.840Z,1.20
2023-02-04T11:08:19.504Z,1.30
2023-02-04T11:11:24.914Z,1.35
2023-02-04T11:14:30.628Z,1.70
2023-02-04T11:17:34.848Z,1.30
2023-02-04T11:20:40.120Z,1.27
2023-02-04T11:23:42.266Z,1.10
2023-02-04T11:26:46.045Z,1.05
2023-02-04T11:29:50.595Z,1.30
2023-02-04T11:33:06.183Z,1.27
2023-02-04T11:36:12.080Z,1.25
2023-02-04T11:39:18.033Z,1.63
2023-02-04T11:42:25.523Z,1.40
2023-02-04T11:45:36.785Z,1.35
2023-02-04T11:48:39.151Z,1.40
2023-02-04T11:51:41.441Z,1.50
2023-02-04T11:54:52.585Z,1.52
2023-02-04T11:57:56.494Z,1.15
2023-02-04T12:00:59.348Z,1.27
2023-02-04T12:04:04.431Z,1.15
2023-02-04T12:07:06.468Z,1.27
2023-02-04T12:10:17.810Z,1.17
2023-02-04T12:13:25.460Z,1.20
2023-02-04T12:16:27.533Z,1.20
2023-02-04T12:19:29.615Z,1.10
2023-02-04T12:22:33.725Z,1.33
2023-02-04T12:25:37.962Z,1.20
2023-02-04T12:28:39.922Z,1.05
2023-02-04T12:31:45.052Z,1.30
2023-02-04T12:34:46.831Z,1.25
2023-02-04T12:37:48.781Z,1.10
2023-02-04T12:40:51.640Z,1.33
2023-02-04T12:43:55.736Z,1.23
2023-02-04T12:46:57.800Z,1.45
2023-02-04T12:50:00.931Z,1.38
2023-02-04T12:53:02.986Z,1.40
2023-02-04T12:56:05.049Z,1.30
2023-02-04T12:59:06.865Z,1.10
2023-02-04T13:02:11.266Z,1.30
2023-02-04T13:05:13.919Z,0.98
2023-02-04T13:08:15.972Z,1.20
2023-02-04T13:11:18.088Z,1.40
2023-02-04T13:14:19.959Z,1.08
2023-02-04T13:17:21.991Z,1.17
2023-02-04T13:20:23.772Z,1.20
2023-02-04T13:23:25.946Z,1.08
2023-02-04T13:26:27.652Z,1.38
2023-02-04T13:29:29.639Z,1.20
2023-02-04T13:32:31.297Z,1.35
2023-02-04T13:35:33.450Z,1.30
2023-02-04T13:38:36.042Z,1.70
2023-02-04T13:41:38.134Z,1.30
2023-02-04T13:44:39.982Z,1.60
2023-02-04T13:47:42.179Z,1.45
2023-02-04T13:50:44.157Z,1.25
2023-02-04T13:53:48.378Z,1.52
2023-02-04T13:56:50.529Z,1.27
2023-02-04T13:59:52.464Z,1.25
2023-02-04T14:02:56.347Z,1.17
2023-02-04T14:05:58.178Z,1.63
2023-02-04T14:09:06.027Z,1.27
2023-02-04T14:12:08.141Z,1.20
2023-02-04T14:15:10.588Z,1.30
2023-02-04T14:18:16.643Z,1.60
2023-02-04T14:21:18.538Z,1.50
2023-02-04T14:24:22.982Z,1.52
2023-02-04T14:27:24.924Z,1.73
2023-02-04T14:30:28.907Z,1.60
2023-02-04T14:33:32.354Z,2.15
2023-02-04T14:36:35.202Z,1.58
2023-02-04T14:39:37.044Z,1.88
2023-02-04T14:42:39.277Z,1.70
2023-02-04T14:45:41.330Z,1.70
2023-02-04T14:48:47.457Z,2.08
2023-02-04T14:51:49.303Z,1.98
2023-02-04T14:54:51.405Z,1.70
2023-02-04T14:57:53.422Z,1.40
2023-02-04T15:00:55.729Z,1.67
2023-02-04T15:03:58.450Z,1.67
2023-02-04T15:07:00.268Z,1.25
2023-02-04T15:10:01.899Z,1.40
2023-02-04T15:13:03.776Z,1.85
2023-02-04T15:16:05.811Z,1.65
2023-02-04T15:19:08.454Z,1.30
2023-02-04T15:22:11.184Z,1.45
2023-02-04T15:25:13.359Z,1.67
2023-02-04T15:28:15.094Z,2.17
2023-02-04T15:31:17.209Z,2.33
2023-02-04T15:34:19.120Z,2.30
2023-02-04T15:37:20.943Z,1.85
2023-02-04T15:40:23.727Z,1.77
2023-02-04T15:43:25.369Z,2.08
2023-02-04T15:46:27.747Z,2.45
2023-02-04T15:49:29.493Z,2.13
2023-02-04T15:52:31.328Z,2.08
2023-02-04T15:55:33.083Z,2.22
2023-02-04T15:58:34.816Z,2.30
2023-02-04T16:01:36.730Z,2.95
2023-02-04T16:04:38.518Z,2.40
2023-02-04T16:07:40.569Z,2.38
2023-02-04T16:10:42.347Z,2.63
2023-02-04T16:13:44.253Z,2.65
2023-02-04T16:16:45.875Z,2.88
2023-02-04T16:19:48.464Z,2.80
2023-02-04T16:22:53.393Z,2.70
2023-02-04T16:25:55.264Z,3.80
2023-02-04T16:28:56.850Z,2.80
2023-02-04T16:31:58.747Z,3.10
2023-02-04T16:35:02.410Z,2.70
2023-02-04T16:38:04.086Z,2.20
2023-02-04T16:41:10.042Z,2.40
2023-02-04T16:44:13.433Z,2.92
2023-02-04T16:47:15.190Z,2.92
2023-02-04T16:50:17.010Z,2.08
2023-02-04T16:53:19.165Z,1.95
2023-02-04T16:56:20.875Z,2.47
2023-02-04T16:59:23.374Z,2.15
2023-02-04T17:02:25.155Z,2.15
2023-02-04T17:05:26.926Z,2.22
2023-02-04T17:08:29.543Z,2.40
2023-02-04T17:11:31.987Z,2.20
2023-02-04T17:14:33.612Z,2.28
2023-02-04T17:17:35.688Z,2.28
2023-02-04T17:20:37.697Z,2.17
2023-02-04T17:23:41.273Z,2.33
2023-02-04T17:26:42.947Z,2.60
2023-02-04T17:29:47.272Z,2.30
2023-02-04T17:32:49.213Z,2.20
2023-02-04T17:35:51.038Z,2.30
2023-02-04T17:38:52.887Z,2.63
2023-02-04T17:41:54.621Z,2.65
2023-02-04T17:44:58.360Z,2.70
2023-02-04T17:48:00.244Z,2.58
2023-02-04T17:51:02.217Z,3.17
2023-02-04T17:54:04.062Z,2.60
2023-02-04T17:57:21.465Z,2.70
2023-02-04T18:00:25.784Z,3.35
2023-02-04T18:03:28.918Z,2.60
2023-02-04T18:06:31.412Z,2.80
2023-02-04T18:09:33.133Z,2.85
2023-02-04T18:12:35.174Z,3.30
2023-02-04T18:15:37.169Z,3.50
2023-02-04T18:18:40.830Z,3.38
2023-02-04T18:21:44.461Z,3.00
2023-02-04T18:24:49.369Z,3.17
2023-02-04T18:27:52.865Z,3.22
2023-02-04T18:31:00.438Z,3.08
2023-02-04T18:34:14.163Z,4.18
2023-02-04T18:37:42.694Z,3.22
2023-02-04T18:40:44.419Z,3.28
2023-02-04T18:43:50.969Z,3.50
2023-02-04T18:46:53.897Z,2.75
2023-02-04T18:49:55.690Z,3.00
2023-02-04T18:53:21.895Z,2.90
2023-02-04T18:56:24.113Z,2.40
2023-02-04T18:59:30.648Z,2.30
2023-02-04T19:02:42.562Z,2.22
2023-02-04T19:05:49.039Z,2.20
2023-02-04T19:08:50.594Z,1.80
2023-02-04T19:11:55.076Z,2.65
2023-02-04T19:14:57.003Z,2.47
2023-02-04T19:18:08.719Z,3.17
2023-02-04T19:21:21.159Z,2.47
2023-02-04T19:24:32.312Z,2.47
2023-02-04T19:30:46.922Z,2.72
2023-02-04T19:33:50.668Z,2.80
2023-02-04T19:36:56.217Z,3.38
2023-02-04T19:39:57.864Z,2.60
2023-02-04T19:43:35.117Z,2.90
2023-02-04T19:46:36.908Z,3.10
2023-02-04T19:49:38.566Z,2.85
2023-02-04T19:53:15.068Z,3.22
2023-02-04T19:56:32.005Z,3.35
2023-02-04T19:59:36.546Z,3.58
2023-02-04T20:02:39.824Z,3.90
2023-02-04T20:05:42.130Z,3.70
2023-02-04T20:08:44.181Z,4.22
2023-02-04T20:11:58.110Z,4.72
2023-02-04T20:15:17.947Z,4.55
2023-02-04T20:18:20.008Z,5.43
2023-02-04T20:21:21.752Z,5.38
2023-02-04T20:24:23.342Z,5.95
2023-02-04T20:27:39.550Z,5.57
2023-02-04T20:30:41.575Z,5.53
2023-02-04T20:33:49.171Z,4.95
2023-02-04T20:36:52.468Z,5.15
2023-02-04T20:39:56.177Z,5.35
2023-02-04T20:43:00.940Z,5.70
2023-02-04T20:46:07.282Z,5.60
2023-02-04T20:49:27.103Z,6.72
2023-02-04T20:52:41.206Z,6.75
2023-02-04T20:55:49.088Z,6.05
2023-02-04T20:58:54.735Z,5.80
2023-02-04T21:01:56.719Z,6.72
2023-02-04T21:05:02.033Z,6.60
2023-02-04T21:08:21.367Z,6.10
2023-02-04T21:11:23.612Z,7.03
2023-02-04T21:14:26.731Z,6.95
2023-02-04T21:17:28.457Z,6.75
2023-02-04T21:20:33.380Z,6.82
2023-02-04T21:23:36.521Z,7.03
2023-02-04T21:26:38.243Z,7.45
2023-02-04T21:29:39.828Z,6.40
2023-02-04T21:32:41.470Z,7.30
2023-02-04T21:35:43.042Z,6.28
2023-02-04T21:38:47.172Z,5.68
2023-02-04T21:42:08.886Z,6.03
2023-02-04T21:45:10.693Z,6.63
2023-02-04T21:48:12.330Z,6.18
2023-02-04T21:51:15.019Z,6.20
2023-02-04T21:54:18.376Z,6.65
2023-02-04T21:57:20.013Z,6.25
2023-02-04T22:00:23.832Z,6.85
2023-02-04T22:03:25.640Z,7.22
2023-02-04T22:06:27.403Z,6.60
2023-02-04T22:09:29.089Z,6.90
2023-02-04T22:12:30.650Z,7.45
2023-02-04T22:15:32.726Z,7.20
2023-02-04T22:18:34.557Z,7.03
2023-02-04T22:21:36.402Z,7.47
2023-02-04T22:24:38.154Z,7.00
2023-02-04T22:27:40.432Z,7.63
2023-02-04T22:30:42.277Z,8.68
2023-02-04T22:33:44.082Z,7.65
2023-02-04T22:36:49.303Z,7.78
2023-02-04T22:39:51.106Z,7.93
2023-02-04T22:42:52.822Z,9.02
2023-02-04T22:45:54.480Z,7.32
2023-02-04T22:48:56.842Z,8.23
2023-02-04T22:51:59.572Z,7.88
2023-02-04T22:55:01.352Z,7.90
2023-02-04T22:58:03.033Z,8.52
2023-02-04T23:01:04.860Z,8.20
2023-02-04T23:04:06.515Z,8.18
2023-02-04T23:07:08.507Z,9.07
2023-02-04T23:10:10.454Z,7.95
2023-02-04T23:13:12.496Z,8.15
2023-02-04T23:16:14.327Z,8.68
2023-02-04T23:19:16.098Z,9.00
2023-02-04T23:22:18.633Z,7.93
2023-02-04T23:25:21.437Z,8.52
2023-02-04T23:28:23.135Z,8.88
2023-02-04T23:31:25.175Z,8.20
2023-02-04T23:34:26.915Z,7.90
2023-02-04T23:37:28.713Z,7.85
2023-02-04T23:40:30.411Z,7.43
2023-02-04T23:43:32.246Z,8.32
2023-02-04T23:46:33.924Z,8.27
2023-02-04T23:49:36.728Z,8.05
2023-02-04T23:52:38.409Z,8.25
2023-02-04T23:55:40.081Z,7.88
2023-02-04T23:58:41.758Z,8.25
